sensor_id;sensor_type;location;lat;lon;timestamp;temperature;humidity
78514;SHT31;67814;51.976;5.810;2023-11-19T00:00:23;15.2;79.9
78514;SHT31;67814;51.976;5.810;2023-11-19T00:02:52;15.2;79.9
78514;SHT31;67814;51.976;5.810;2023-11-19T00:05:20;15.2;79.8
78514;SHT31;67814;51.976;5.810;2023-11-19T00:07:49;15.2;79.9
78514;SHT31;67814;51.976;5.810;2023-11-19T00:10:18;15.2;79.8
78514;SHT31;67814;51.976;5.810;2023-11-19T00:12:48;15.3;79.8
78514;SHT31;67814;51.976;5.810;2023-11-19T00:15:18;15.3;79.7
78514;SHT31;67814;51.976;5.810;2023-11-19T00:17:47;15.3;79.8
78514;SHT31;67814;51.976;5.810;2023-11-19T00:20:18;15.3;79.6
78514;SHT31;67814;51.976;5.810;2023-11-19T00:22:48;15.3;79.4
78514;SHT31;67814;51.976;5.810;2023-11-19T00:25:19;15.4;79.4
78514;SHT31;67814;51.976;5.810;2023-11-19T00:27:48;15.4;79.2
78514;SHT31;67814;51.976;5.810;2023-11-19T00:30:18;15.4;79.1
78514;SHT31;67814;51.976;5.810;2023-11-19T00:32:46;15.4;79.1
78514;SHT31;67814;51.976;5.810;2023-11-19T00:35:15;15.4;79.1
78514;SHT31;67814;51.976;5.810;2023-11-19T00:37:43;15.4;79.1
78514;SHT31;67814;51.976;5.810;2023-11-19T00:40:14;15.4;78.9
78514;SHT31;67814;51.976;5.810;2023-11-19T00:42:44;15.5;78.9
78514;SHT31;67814;51.976;5.810;2023-11-19T00:45:14;15.5;78.7
78514;SHT31;67814;51.976;5.810;2023-11-19T00:47:42;15.5;78.7
78514;SHT31;67814;51.976;5.810;2023-11-19T00:50:14;15.5;78.7
78514;SHT31;67814;51.976;5.810;2023-11-19T00:52:42;15.5;78.7
78514;SHT31;67814;51.976;5.810;2023-11-19T00:55:11;15.5;78.6
78514;SHT31;67814;51.976;5.810;2023-11-19T00:57:39;15.5;78.5
78514;SHT31;67814;51.976;5.810;2023-11-19T01:00:09;15.5;78.5
78514;SHT31;67814;51.976;5.810;2023-11-19T01:02:44;15.6;78.2
78514;SHT31;67814;51.976;5.810;2023-11-19T01:05:14;15.6;78.3
78514;SHT31;67814;51.976;5.810;2023-11-19T01:07:42;15.6;78.2
78514;SHT31;67814;51.976;5.810;2023-11-19T01:10:11;15.6;78.1
78514;SHT31;67814;51.976;5.810;2023-11-19T01:12:42;15.6;78.0
78514;SHT31;67814;51.976;5.810;2023-11-19T01:15:11;15.6;78.0
78514;SHT31;67814;51.976;5.810;2023-11-19T01:17:39;15.6;77.9
78514;SHT31;67814;51.976;5.810;2023-11-19T01:20:10;15.6;77.8
78514;SHT31;67814;51.976;5.810;2023-11-19T01:22:39;15.6;77.8
78514;SHT31;67814;51.976;5.810;2023-11-19T01:25:08;15.6;77.7
78514;SHT31;67814;51.976;5.810;2023-11-19T01:27:37;15.6;77.7
78514;SHT31;67814;51.976;5.810;2023-11-19T01:30:06;15.6;77.7
78514;SHT31;67814;51.976;5.810;2023-11-19T01:32:35;15.6;77.7
78514;SHT31;67814;51.976;5.810;2023-11-19T01:35:05;15.6;77.5
78514;SHT31;67814;51.976;5.810;2023-11-19T01:37:34;15.6;77.5
78514;SHT31;67814;51.976;5.810;2023-11-19T01:40:03;15.6;77.4
78514;SHT31;67814;51.976;5.810;2023-11-19T01:42:38;15.6;77.3
78514;SHT31;67814;51.976;5.810;2023-11-19T01:45:07;15.6;77.3
78514;SHT31;67814;51.976;5.810;2023-11-19T01:47:37;15.6;77.3
78514;SHT31;67814;51.976;5.810;2023-11-19T01:50:08;15.6;77.2
78514;SHT31;67814;51.976;5.810;2023-11-19T01:52:39;15.6;77.0
78514;SHT31;67814;51.976;5.810;2023-11-19T01:55:10;15.6;77.0
78514;SHT31;67814;51.976;5.810;2023-11-19T01:57:39;15.6;77.0
78514;SHT31;67814;51.976;5.810;2023-11-19T02:00:10;15.6;76.9
78514;SHT31;67814;51.976;5.810;2023-11-19T02:02:40;15.6;76.6
78514;SHT31;67814;51.976;5.810;2023-11-19T02:05:10;15.6;76.7
78514;SHT31;67814;51.976;5.810;2023-11-19T02:07:39;15.6;76.7
78514;SHT31;67814;51.976;5.810;2023-11-19T02:10:10;15.5;76.6
78514;SHT31;67814;51.976;5.810;2023-11-19T02:12:42;15.5;76.7
78514;SHT31;67814;51.976;5.810;2023-11-19T02:15:11;15.5;76.4
78514;SHT31;67814;51.976;5.810;2023-11-19T02:17:40;15.5;76.3
78514;SHT31;67814;51.976;5.810;2023-11-19T02:20:10;15.5;76.3
78514;SHT31;67814;51.976;5.810;2023-11-19T02:22:43;15.5;76.1
78514;SHT31;67814;51.976;5.810;2023-11-19T02:25:17;15.6;76.0
78514;SHT31;67814;51.976;5.810;2023-11-19T02:27:58;15.6;75.9
78514;SHT31;67814;51.976;5.810;2023-11-19T02:30:27;15.5;75.7
78514;SHT31;67814;51.976;5.810;2023-11-19T02:32:56;15.5;75.8
78514;SHT31;67814;51.976;5.810;2023-11-19T02:35:28;15.5;75.7
78514;SHT31;67814;51.976;5.810;2023-11-19T02:37:58;15.5;75.6
78514;SHT31;67814;51.976;5.810;2023-11-19T02:40:27;15.5;75.5
78514;SHT31;67814;51.976;5.810;2023-11-19T02:42:56;15.5;75.2
78514;SHT31;67814;51.976;5.810;2023-11-19T02:45:26;15.5;75.0
78514;SHT31;67814;51.976;5.810;2023-11-19T02:47:57;15.5;74.9
78514;SHT31;67814;51.976;5.810;2023-11-19T02:50:27;15.5;75.0
78514;SHT31;67814;51.976;5.810;2023-11-19T02:52:57;15.5;74.8
78514;SHT31;67814;51.976;5.810;2023-11-19T02:55:27;15.5;74.6
78514;SHT31;67814;51.976;5.810;2023-11-19T02:58:00;15.4;74.8
78514;SHT31;67814;51.976;5.810;2023-11-19T03:00:34;15.4;74.7
78514;SHT31;67814;51.976;5.810;2023-11-19T03:03:04;15.4;74.2
78514;SHT31;67814;51.976;5.810;2023-11-19T03:05:38;15.4;74.5
78514;SHT31;67814;51.976;5.810;2023-11-19T03:08:07;15.4;74.2
78514;SHT31;67814;51.976;5.810;2023-11-19T03:10:35;15.3;74.2
78514;SHT31;67814;51.976;5.810;2023-11-19T03:13:04;15.3;74.1
78514;SHT31;67814;51.976;5.810;2023-11-19T03:15:34;15.3;74.2
78514;SHT31;67814;51.976;5.810;2023-11-19T03:18:03;15.2;74.4
78514;SHT31;67814;51.976;5.810;2023-11-19T03:20:31;15.2;74.2
78514;SHT31;67814;51.976;5.810;2023-11-19T03:23:00;15.2;74.2
78514;SHT31;67814;51.976;5.810;2023-11-19T03:25:29;15.2;74.2
78514;SHT31;67814;51.976;5.810;2023-11-19T03:28:02;15.1;74.4
78514;SHT31;67814;51.976;5.810;2023-11-19T03:30:31;15.1;74.5
78514;SHT31;67814;51.976;5.810;2023-11-19T03:33:00;15.1;74.2
78514;SHT31;67814;51.976;5.810;2023-11-19T03:35:29;15.1;74.1
78514;SHT31;67814;51.976;5.810;2023-11-19T03:37:59;15.0;74.1
78514;SHT31;67814;51.976;5.810;2023-11-19T03:40:28;15.0;74.1
78514;SHT31;67814;51.976;5.810;2023-11-19T03:42:57;15.0;73.9
78514;SHT31;67814;51.976;5.810;2023-11-19T03:45:26;14.9;74.0
78514;SHT31;67814;51.976;5.810;2023-11-19T03:47:55;14.9;73.8
78514;SHT31;67814;51.976;5.810;2023-11-19T03:50:24;14.9;74.0
78514;SHT31;67814;51.976;5.810;2023-11-19T03:52:52;14.8;74.1
78514;SHT31;67814;51.976;5.810;2023-11-19T03:55:21;14.8;74.0
78514;SHT31;67814;51.976;5.810;2023-11-19T03:57:49;14.7;74.0
78514;SHT31;67814;51.976;5.810;2023-11-19T04:00:18;14.7;73.9
78514;SHT31;67814;51.976;5.810;2023-11-19T04:02:47;14.6;74.1
78514;SHT31;67814;51.976;5.810;2023-11-19T04:05:16;14.5;74.2
78514;SHT31;67814;51.976;5.810;2023-11-19T04:07:45;14.5;74.3
78514;SHT31;67814;51.976;5.810;2023-11-19T04:10:13;14.4;74.5
78514;SHT31;67814;51.976;5.810;2023-11-19T04:12:43;14.3;74.8
78514;SHT31;67814;51.976;5.810;2023-11-19T04:15:14;14.3;74.9
78514;SHT31;67814;51.976;5.810;2023-11-19T04:17:43;14.3;74.9
78514;SHT31;67814;51.976;5.810;2023-11-19T04:20:12;14.2;74.7
78514;SHT31;67814;51.976;5.810;2023-11-19T04:22:40;14.2;74.7
78514;SHT31;67814;51.976;5.810;2023-11-19T04:25:09;14.1;74.6
78514;SHT31;67814;51.976;5.810;2023-11-19T04:27:37;14.1;74.7
78514;SHT31;67814;51.976;5.810;2023-11-19T04:30:07;14.1;74.6
78514;SHT31;67814;51.976;5.810;2023-11-19T04:32:37;14.0;74.7
78514;SHT31;67814;51.976;5.810;2023-11-19T04:35:07;14.0;74.7
78514;SHT31;67814;51.976;5.810;2023-11-19T04:37:36;14.0;74.7
78514;SHT31;67814;51.976;5.810;2023-11-19T04:40:06;13.9;74.6
78514;SHT31;67814;51.976;5.810;2023-11-19T04:42:35;13.9;74.6
78514;SHT31;67814;51.976;5.810;2023-11-19T04:45:04;13.9;74.5
78514;SHT31;67814;51.976;5.810;2023-11-19T04:47:33;13.8;74.3
78514;SHT31;67814;51.976;5.810;2023-11-19T04:50:03;13.8;74.5
78514;SHT31;67814;51.976;5.810;2023-11-19T04:52:31;13.8;74.4
78514;SHT31;67814;51.976;5.810;2023-11-19T04:55:00;13.8;74.4
78514;SHT31;67814;51.976;5.810;2023-11-19T04:57:28;13.7;74.4
78514;SHT31;67814;51.976;5.810;2023-11-19T04:59:57;13.7;74.5
78514;SHT31;67814;51.976;5.810;2023-11-19T05:02:26;13.7;74.5
78514;SHT31;67814;51.976;5.810;2023-11-19T05:04:54;13.6;74.6
78514;SHT31;67814;51.976;5.810;2023-11-19T05:07:23;13.6;74.9
78514;SHT31;67814;51.976;5.810;2023-11-19T05:09:53;13.6;74.8
78514;SHT31;67814;51.976;5.810;2023-11-19T05:12:22;13.6;74.9
78514;SHT31;67814;51.976;5.810;2023-11-19T05:14:51;13.6;74.9
78514;SHT31;67814;51.976;5.810;2023-11-19T05:17:19;13.6;75.0
78514;SHT31;67814;51.976;5.810;2023-11-19T05:19:50;13.6;75.2
78514;SHT31;67814;51.976;5.810;2023-11-19T05:22:18;13.6;75.4
78514;SHT31;67814;51.976;5.810;2023-11-19T05:24:47;13.6;75.7
78514;SHT31;67814;51.976;5.810;2023-11-19T05:27:16;13.6;75.5
78514;SHT31;67814;51.976;5.810;2023-11-19T05:29:46;13.6;75.6
78514;SHT31;67814;51.976;5.810;2023-11-19T05:32:15;13.7;75.2
78514;SHT31;67814;51.976;5.810;2023-11-19T05:34:43;13.7;75.0
78514;SHT31;67814;51.976;5.810;2023-11-19T05:37:12;13.7;75.2
78514;SHT31;67814;51.976;5.810;2023-11-19T05:39:41;13.7;74.8
78514;SHT31;67814;51.976;5.810;2023-11-19T05:42:11;13.7;74.6
78514;SHT31;67814;51.976;5.810;2023-11-19T05:44:39;13.8;74.7
78514;SHT31;67814;51.976;5.810;2023-11-19T05:47:07;13.8;74.3
78514;SHT31;67814;51.976;5.810;2023-11-19T05:49:36;13.8;74.2
78514;SHT31;67814;51.976;5.810;2023-11-19T05:52:06;13.8;73.9
78514;SHT31;67814;51.976;5.810;2023-11-19T05:54:37;13.8;73.8
78514;SHT31;67814;51.976;5.810;2023-11-19T05:57:06;13.8;73.7
78514;SHT31;67814;51.976;5.810;2023-11-19T05:59:35;13.8;73.5
78514;SHT31;67814;51.976;5.810;2023-11-19T06:02:04;13.8;73.4
78514;SHT31;67814;51.976;5.810;2023-11-19T06:04:33;13.8;73.3
78514;SHT31;67814;51.976;5.810;2023-11-19T06:07:01;13.8;73.4
78514;SHT31;67814;51.976;5.810;2023-11-19T06:09:30;13.8;73.4
78514;SHT31;67814;51.976;5.810;2023-11-19T06:12:00;13.8;73.5
78514;SHT31;67814;51.976;5.810;2023-11-19T06:14:30;13.8;73.6
78514;SHT31;67814;51.976;5.810;2023-11-19T06:16:58;13.8;73.5
78514;SHT31;67814;51.976;5.810;2023-11-19T06:19:27;13.8;73.3
78514;SHT31;67814;51.976;5.810;2023-11-19T06:21:55;13.8;73.0
78514;SHT31;67814;51.976;5.810;2023-11-19T06:24:24;13.8;73.1
78514;SHT31;67814;51.976;5.810;2023-11-19T06:26:52;13.8;73.1
78514;SHT31;67814;51.976;5.810;2023-11-19T06:29:21;13.8;73.0
78514;SHT31;67814;51.976;5.810;2023-11-19T06:31:49;13.8;73.0
78514;SHT31;67814;51.976;5.810;2023-11-19T06:34:18;13.8;73.1
78514;SHT31;67814;51.976;5.810;2023-11-19T06:36:46;13.7;73.3
78514;SHT31;67814;51.976;5.810;2023-11-19T06:39:15;13.7;73.3
78514;SHT31;67814;51.976;5.810;2023-11-19T06:41:46;13.7;73.2
78514;SHT31;67814;51.976;5.810;2023-11-19T06:44:15;13.7;73.3
78514;SHT31;67814;51.976;5.810;2023-11-19T06:46:44;13.6;73.4
78514;SHT31;67814;51.976;5.810;2023-11-19T06:49:12;13.6;73.5
78514;SHT31;67814;51.976;5.810;2023-11-19T06:51:43;13.6;73.6
78514;SHT31;67814;51.976;5.810;2023-11-19T06:54:12;13.6;73.7
78514;SHT31;67814;51.976;5.810;2023-11-19T06:56:41;13.6;73.9
78514;SHT31;67814;51.976;5.810;2023-11-19T06:59:09;13.6;73.7
78514;SHT31;67814;51.976;5.810;2023-11-19T07:01:40;13.5;73.7
78514;SHT31;67814;51.976;5.810;2023-11-19T07:04:10;13.5;73.7
78514;SHT31;67814;51.976;5.810;2023-11-19T07:06:39;13.5;73.8
78514;SHT31;67814;51.976;5.810;2023-11-19T07:09:09;13.5;74.1
78514;SHT31;67814;51.976;5.810;2023-11-19T07:11:38;13.5;74.2
78514;SHT31;67814;51.976;5.810;2023-11-19T07:14:08;13.5;74.3
78514;SHT31;67814;51.976;5.810;2023-11-19T07:16:38;13.5;74.5
78514;SHT31;67814;51.976;5.810;2023-11-19T07:19:07;13.5;74.3
78514;SHT31;67814;51.976;5.810;2023-11-19T07:21:36;13.6;74.4
78514;SHT31;67814;51.976;5.810;2023-11-19T07:24:06;13.6;74.2
78514;SHT31;67814;51.976;5.810;2023-11-19T07:26:35;13.6;73.9
78514;SHT31;67814;51.976;5.810;2023-11-19T07:29:04;13.6;73.7
78514;SHT31;67814;51.976;5.810;2023-11-19T07:31:33;13.6;73.5
78514;SHT31;67814;51.976;5.810;2023-11-19T07:34:03;13.6;73.3
78514;SHT31;67814;51.976;5.810;2023-11-19T07:36:32;13.6;73.3
78514;SHT31;67814;51.976;5.810;2023-11-19T07:39:05;13.6;73.3
78514;SHT31;67814;51.976;5.810;2023-11-19T07:41:34;13.6;73.3
78514;SHT31;67814;51.976;5.810;2023-11-19T07:44:05;13.6;73.3
78514;SHT31;67814;51.976;5.810;2023-11-19T07:46:34;13.6;73.5
78514;SHT31;67814;51.976;5.810;2023-11-19T07:49:03;13.6;73.4
78514;SHT31;67814;51.976;5.810;2023-11-19T07:51:31;13.6;73.4
78514;SHT31;67814;51.976;5.810;2023-11-19T07:54:00;13.7;73.5
78514;SHT31;67814;51.976;5.810;2023-11-19T07:56:28;13.7;73.5
78514;SHT31;67814;51.976;5.810;2023-11-19T07:58:57;13.7;73.4
78514;SHT31;67814;51.976;5.810;2023-11-19T08:01:25;13.7;73.2
78514;SHT31;67814;51.976;5.810;2023-11-19T08:03:54;13.8;73.5
78514;SHT31;67814;51.976;5.810;2023-11-19T08:06:23;13.8;73.8
78514;SHT31;67814;51.976;5.810;2023-11-19T08:08:52;13.8;73.5
78514;SHT31;67814;51.976;5.810;2023-11-19T08:11:20;13.9;73.5
78514;SHT31;67814;51.976;5.810;2023-11-19T08:13:49;13.9;72.6
78514;SHT31;67814;51.976;5.810;2023-11-19T08:16:17;14.0;72.1
78514;SHT31;67814;51.976;5.810;2023-11-19T08:18:47;14.0;72.2
78514;SHT31;67814;51.976;5.810;2023-11-19T08:21:16;14.1;72.4
78514;SHT31;67814;51.976;5.810;2023-11-19T08:23:44;14.1;72.3
78514;SHT31;67814;51.976;5.810;2023-11-19T08:26:14;14.1;72.0
78514;SHT31;67814;51.976;5.810;2023-11-19T08:28:45;14.1;72.2
78514;SHT31;67814;51.976;5.810;2023-11-19T08:31:14;14.2;72.4
78514;SHT31;67814;51.976;5.810;2023-11-19T08:33:42;14.2;71.5
78514;SHT31;67814;51.976;5.810;2023-11-19T08:36:15;14.2;71.7
78514;SHT31;67814;51.976;5.810;2023-11-19T08:38:43;14.2;71.0
78514;SHT31;67814;51.976;5.810;2023-11-19T08:41:12;14.3;70.7
78514;SHT31;67814;51.976;5.810;2023-11-19T08:43:41;14.3;70.7
78514;SHT31;67814;51.976;5.810;2023-11-19T08:46:11;14.3;70.7
78514;SHT31;67814;51.976;5.810;2023-11-19T08:48:42;14.3;70.7
78514;SHT31;67814;51.976;5.810;2023-11-19T08:51:10;14.3;70.8
78514;SHT31;67814;51.976;5.810;2023-11-19T08:53:39;14.3;70.7
78514;SHT31;67814;51.976;5.810;2023-11-19T08:56:07;14.3;70.7
78514;SHT31;67814;51.976;5.810;2023-11-19T08:58:36;14.4;71.0
78514;SHT31;67814;51.976;5.810;2023-11-19T09:01:05;14.4;70.6
78514;SHT31;67814;51.976;5.810;2023-11-19T09:03:34;14.5;70.5
78514;SHT31;67814;51.976;5.810;2023-11-19T09:06:03;14.5;70.7
78514;SHT31;67814;51.976;5.810;2023-11-19T09:08:32;14.5;69.9
78514;SHT31;67814;51.976;5.810;2023-11-19T09:11:00;14.6;69.4
78514;SHT31;67814;51.976;5.810;2023-11-19T09:13:29;14.6;69.6
78514;SHT31;67814;51.976;5.810;2023-11-19T09:15:57;14.6;69.6
78514;SHT31;67814;51.976;5.810;2023-11-19T09:18:29;14.6;69.5
78514;SHT31;67814;51.976;5.810;2023-11-19T09:20:58;14.7;69.3
78514;SHT31;67814;51.976;5.810;2023-11-19T09:23:27;14.7;68.7
78514;SHT31;67814;51.976;5.810;2023-11-19T09:25:59;14.7;68.9
78514;SHT31;67814;51.976;5.810;2023-11-19T09:28:27;14.7;69.1
78514;SHT31;67814;51.976;5.810;2023-11-19T09:30:56;14.7;69.6
78514;SHT31;67814;51.976;5.810;2023-11-19T09:33:25;14.7;69.0
78514;SHT31;67814;51.976;5.810;2023-11-19T09:35:53;14.8;68.8
78514;SHT31;67814;51.976;5.810;2023-11-19T09:38:22;14.8;68.7
78514;SHT31;67814;51.976;5.810;2023-11-19T09:40:51;14.8;68.8
78514;SHT31;67814;51.976;5.810;2023-11-19T09:43:19;14.8;69.2
78514;SHT31;67814;51.976;5.810;2023-11-19T09:45:50;14.8;68.5
78514;SHT31;67814;51.976;5.810;2023-11-19T09:48:19;14.9;69.1
78514;SHT31;67814;51.976;5.810;2023-11-19T09:50:48;14.9;69.0
78514;SHT31;67814;51.976;5.810;2023-11-19T09:53:18;15.0;68.2
78514;SHT31;67814;51.976;5.810;2023-11-19T09:55:48;15.0;68.7
78514;SHT31;67814;51.976;5.810;2023-11-19T09:58:17;15.0;68.9
78514;SHT31;67814;51.976;5.810;2023-11-19T10:00:47;15.1;67.9
78514;SHT31;67814;51.976;5.810;2023-11-19T10:03:18;15.1;68.3
78514;SHT31;67814;51.976;5.810;2023-11-19T10:05:46;15.1;68.3
78514;SHT31;67814;51.976;5.810;2023-11-19T10:08:15;15.2;67.6
78514;SHT31;67814;51.976;5.810;2023-11-19T10:10:44;15.2;68.5
78514;SHT31;67814;51.976;5.810;2023-11-19T10:13:13;15.2;67.7
78514;SHT31;67814;51.976;5.810;2023-11-19T10:15:44;15.3;67.2
78514;SHT31;67814;51.976;5.810;2023-11-19T10:18:14;15.3;67.4
78514;SHT31;67814;51.976;5.810;2023-11-19T10:20:42;15.3;66.6
78514;SHT31;67814;51.976;5.810;2023-11-19T10:23:11;15.3;67.3
78514;SHT31;67814;51.976;5.810;2023-11-19T10:25:39;15.3;66.5
78514;SHT31;67814;51.976;5.810;2023-11-19T10:28:08;15.3;66.4
78514;SHT31;67814;51.976;5.810;2023-11-19T10:30:36;15.3;66.5
78514;SHT31;67814;51.976;5.810;2023-11-19T10:33:07;15.3;66.9
78514;SHT31;67814;51.976;5.810;2023-11-19T10:35:52;15.3;66.3
78514;SHT31;67814;51.976;5.810;2023-11-19T10:38:23;15.3;65.8
78514;SHT31;67814;51.976;5.810;2023-11-19T10:40:53;15.3;66.0
78514;SHT31;67814;51.976;5.810;2023-11-19T10:43:23;15.3;65.9
78514;SHT31;67814;51.976;5.810;2023-11-19T10:45:52;15.3;65.7
78514;SHT31;67814;51.976;5.810;2023-11-19T10:48:20;15.3;65.8
78514;SHT31;67814;51.976;5.810;2023-11-19T10:50:54;15.4;65.7
78514;SHT31;67814;51.976;5.810;2023-11-19T10:53:26;15.4;65.8
78514;SHT31;67814;51.976;5.810;2023-11-19T10:55:58;15.4;66.0
78514;SHT31;67814;51.976;5.810;2023-11-19T10:58:28;15.4;66.0
78514;SHT31;67814;51.976;5.810;2023-11-19T11:01:02;15.5;66.1
78514;SHT31;67814;51.976;5.810;2023-11-19T11:03:37;15.5;64.4
78514;SHT31;67814;51.976;5.810;2023-11-19T11:06:08;15.5;64.9
78514;SHT31;67814;51.976;5.810;2023-11-19T11:08:39;15.5;65.5
78514;SHT31;67814;51.976;5.810;2023-11-19T11:11:08;15.5;65.4
78514;SHT31;67814;51.976;5.810;2023-11-19T11:13:42;15.5;65.2
78514;SHT31;67814;51.976;5.810;2023-11-19T11:16:11;15.6;64.8
78514;SHT31;67814;51.976;5.810;2023-11-19T11:18:40;15.6;64.5
78514;SHT31;67814;51.976;5.810;2023-11-19T11:21:13;15.6;64.0
78514;SHT31;67814;51.976;5.810;2023-11-19T11:24:06;15.6;63.7
78514;SHT31;67814;51.976;5.810;2023-11-19T11:26:56;15.6;64.4
78514;SHT31;67814;51.976;5.810;2023-11-19T11:29:37;15.6;64.1
78514;SHT31;67814;51.976;5.810;2023-11-19T11:32:20;15.6;64.3
78514;SHT31;67814;51.976;5.810;2023-11-19T11:35:27;15.7;64.7
78514;SHT31;67814;51.976;5.810;2023-11-19T11:38:04;15.7;64.5
78514;SHT31;67814;51.976;5.810;2023-11-19T11:40:35;15.7;64.3
78514;SHT31;67814;51.976;5.810;2023-11-19T11:43:04;15.7;64.7
78514;SHT31;67814;51.976;5.810;2023-11-19T11:45:40;15.8;64.6
78514;SHT31;67814;51.976;5.810;2023-11-19T11:48:22;15.8;64.5
78514;SHT31;67814;51.976;5.810;2023-11-19T11:50:55;15.8;64.7
78514;SHT31;67814;51.976;5.810;2023-11-19T11:53:25;15.8;64.4
78514;SHT31;67814;51.976;5.810;2023-11-19T11:55:58;15.8;64.5
78514;SHT31;67814;51.976;5.810;2023-11-19T11:58:35;15.8;63.9
78514;SHT31;67814;51.976;5.810;2023-11-19T12:01:05;15.9;63.5
78514;SHT31;67814;51.976;5.810;2023-11-19T12:03:37;15.9;63.6
78514;SHT31;67814;51.976;5.810;2023-11-19T12:06:06;15.9;64.5
78514;SHT31;67814;51.976;5.810;2023-11-19T12:08:35;15.9;63.9
78514;SHT31;67814;51.976;5.810;2023-11-19T12:11:05;15.9;64.0
78514;SHT31;67814;51.976;5.810;2023-11-19T12:13:56;15.9;64.0
78514;SHT31;67814;51.976;5.810;2023-11-19T12:16:28;15.9;62.8
78514;SHT31;67814;51.976;5.810;2023-11-19T12:19:04;16.0;62.4
78514;SHT31;67814;51.976;5.810;2023-11-19T12:21:34;16.0;62.5
78514;SHT31;67814;51.976;5.810;2023-11-19T12:24:06;16.0;62.8
78514;SHT31;67814;51.976;5.810;2023-11-19T12:26:37;16.0;63.2
78514;SHT31;67814;51.976;5.810;2023-11-19T12:29:06;16.0;63.0
78514;SHT31;67814;51.976;5.810;2023-11-19T12:31:35;16.0;62.8
78514;SHT31;67814;51.976;5.810;2023-11-19T12:34:08;16.0;62.4
78514;SHT31;67814;51.976;5.810;2023-11-19T12:36:38;16.0;63.1
78514;SHT31;67814;51.976;5.810;2023-11-19T12:39:07;16.0;62.5
78514;SHT31;67814;51.976;5.810;2023-11-19T12:42:02;16.1;62.2
78514;SHT31;67814;51.976;5.810;2023-11-19T12:44:31;16.1;62.3
78514;SHT31;67814;51.976;5.810;2023-11-19T12:47:01;16.1;62.2
78514;SHT31;67814;51.976;5.810;2023-11-19T12:49:30;16.1;61.3
78514;SHT31;67814;51.976;5.810;2023-11-19T12:51:59;16.2;61.3
78514;SHT31;67814;51.976;5.810;2023-11-19T12:54:36;16.2;61.3
78514;SHT31;67814;51.976;5.810;2023-11-19T12:57:05;16.2;60.9
78514;SHT31;67814;51.976;5.810;2023-11-19T12:59:34;16.2;61.4
78514;SHT31;67814;51.976;5.810;2023-11-19T13:02:03;16.2;61.3
78514;SHT31;67814;51.976;5.810;2023-11-19T13:04:33;16.2;61.9
78514;SHT31;67814;51.976;5.810;2023-11-19T13:07:02;16.2;61.8
78514;SHT31;67814;51.976;5.810;2023-11-19T13:09:32;16.3;61.7
78514;SHT31;67814;51.976;5.810;2023-11-19T13:12:14;16.3;61.3
78514;SHT31;67814;51.976;5.810;2023-11-19T13:14:43;16.3;61.6
78514;SHT31;67814;51.976;5.810;2023-11-19T13:17:16;16.3;61.5
78514;SHT31;67814;51.976;5.810;2023-11-19T13:19:47;16.3;61.4
78514;SHT31;67814;51.976;5.810;2023-11-19T13:22:17;16.3;61.8
78514;SHT31;67814;51.976;5.810;2023-11-19T13:24:45;16.3;61.7
78514;SHT31;67814;51.976;5.810;2023-11-19T13:27:15;16.3;61.8
78514;SHT31;67814;51.976;5.810;2023-11-19T13:29:43;16.3;62.3
78514;SHT31;67814;51.976;5.810;2023-11-19T13:32:12;16.4;61.8
78514;SHT31;67814;51.976;5.810;2023-11-19T13:34:40;16.4;61.9
78514;SHT31;67814;51.976;5.810;2023-11-19T13:37:09;16.3;61.7
78514;SHT31;67814;51.976;5.810;2023-11-19T13:39:41;16.3;61.8
78514;SHT31;67814;51.976;5.810;2023-11-19T13:42:10;16.3;62.1
78514;SHT31;67814;51.976;5.810;2023-11-19T13:44:38;16.2;62.4
78514;SHT31;67814;51.976;5.810;2023-11-19T13:47:09;16.2;62.4
78514;SHT31;67814;51.976;5.810;2023-11-19T13:49:37;16.2;62.5
78514;SHT31;67814;51.976;5.810;2023-11-19T13:52:06;16.1;62.3
78514;SHT31;67814;51.976;5.810;2023-11-19T13:54:36;16.1;62.7
78514;SHT31;67814;51.976;5.810;2023-11-19T13:57:04;16.0;63.4
78514;SHT31;67814;51.976;5.810;2023-11-19T13:59:33;16.0;63.9
78514;SHT31;67814;51.976;5.810;2023-11-19T14:02:01;15.9;64.4
78514;SHT31;67814;51.976;5.810;2023-11-19T14:04:33;15.9;65.0
78514;SHT31;67814;51.976;5.810;2023-11-19T14:07:02;15.8;65.4
78514;SHT31;67814;51.976;5.810;2023-11-19T14:09:30;15.8;65.6
78514;SHT31;67814;51.976;5.810;2023-11-19T14:11:59;15.8;65.6
78514;SHT31;67814;51.976;5.810;2023-11-19T14:14:28;15.7;66.1
78514;SHT31;67814;51.976;5.810;2023-11-19T14:16:56;15.7;66.0
78514;SHT31;67814;51.976;5.810;2023-11-19T14:19:24;15.6;66.0
78514;SHT31;67814;51.976;5.810;2023-11-19T14:21:53;15.6;66.1
78514;SHT31;67814;51.976;5.810;2023-11-19T14:24:22;15.6;66.2
78514;SHT31;67814;51.976;5.810;2023-11-19T14:26:50;15.5;66.1
78514;SHT31;67814;51.976;5.810;2023-11-19T14:29:21;15.5;66.4
78514;SHT31;67814;51.976;5.810;2023-11-19T14:31:49;15.5;66.5
78514;SHT31;67814;51.976;5.810;2023-11-19T14:34:18;15.5;66.1
78514;SHT31;67814;51.976;5.810;2023-11-19T14:36:47;15.4;66.0
78514;SHT31;67814;51.976;5.810;2023-11-19T14:39:16;15.4;66.2
78514;SHT31;67814;51.976;5.810;2023-11-19T14:41:44;15.4;65.9
78514;SHT31;67814;51.976;5.810;2023-11-19T14:44:13;15.4;66.0
78514;SHT31;67814;51.976;5.810;2023-11-19T14:46:41;15.3;66.0
78514;SHT31;67814;51.976;5.810;2023-11-19T14:49:10;15.3;66.2
78514;SHT31;67814;51.976;5.810;2023-11-19T14:51:40;15.3;66.4
78514;SHT31;67814;51.976;5.810;2023-11-19T14:54:09;15.2;66.5
78514;SHT31;67814;51.976;5.810;2023-11-19T14:56:39;15.2;66.7
78514;SHT31;67814;51.976;5.810;2023-11-19T14:59:10;15.1;66.9
78514;SHT31;67814;51.976;5.810;2023-11-19T15:01:38;15.1;67.0
78514;SHT31;67814;51.976;5.810;2023-11-19T15:04:07;15.1;67.3
78514;SHT31;67814;51.976;5.810;2023-11-19T15:06:36;15.0;67.5
78514;SHT31;67814;51.976;5.810;2023-11-19T15:09:05;15.0;67.5
78514;SHT31;67814;51.976;5.810;2023-11-19T15:11:34;15.0;67.4
78514;SHT31;67814;51.976;5.810;2023-11-19T15:14:02;14.9;67.4
78514;SHT31;67814;51.976;5.810;2023-11-19T15:16:32;14.9;67.6
78514;SHT31;67814;51.976;5.810;2023-11-19T15:19:01;14.9;67.4
78514;SHT31;67814;51.976;5.810;2023-11-19T15:21:31;14.8;67.3
78514;SHT31;67814;51.976;5.810;2023-11-19T15:24:00;14.8;67.6
78514;SHT31;67814;51.976;5.810;2023-11-19T15:26:31;14.8;67.7
78514;SHT31;67814;51.976;5.810;2023-11-19T15:28:59;14.7;68.0
78514;SHT31;67814;51.976;5.810;2023-11-19T15:31:29;14.7;68.2
78514;SHT31;67814;51.976;5.810;2023-11-19T15:33:58;14.7;68.2
78514;SHT31;67814;51.976;5.810;2023-11-19T15:36:28;14.7;68.3
78514;SHT31;67814;51.976;5.810;2023-11-19T15:38:58;14.7;68.3
78514;SHT31;67814;51.976;5.810;2023-11-19T15:41:27;14.7;68.3
78514;SHT31;67814;51.976;5.810;2023-11-19T15:43:56;14.7;68.3
78514;SHT31;67814;51.976;5.810;2023-11-19T15:46:25;14.7;68.3
78514;SHT31;67814;51.976;5.810;2023-11-19T15:48:53;14.7;68.1
78514;SHT31;67814;51.976;5.810;2023-11-19T15:51:22;14.8;68.2
78514;SHT31;67814;51.976;5.810;2023-11-19T15:53:50;14.8;68.1
78514;SHT31;67814;51.976;5.810;2023-11-19T15:56:21;14.8;68.0
78514;SHT31;67814;51.976;5.810;2023-11-19T15:58:49;14.8;68.0
78514;SHT31;67814;51.976;5.810;2023-11-19T16:01:19;14.8;68.1
78514;SHT31;67814;51.976;5.810;2023-11-19T16:03:47;14.8;68.3
78514;SHT31;67814;51.976;5.810;2023-11-19T16:06:16;14.8;68.1
78514;SHT31;67814;51.976;5.810;2023-11-19T16:08:44;14.8;68.6
78514;SHT31;67814;51.976;5.810;2023-11-19T16:11:14;14.8;68.7
78514;SHT31;67814;51.976;5.810;2023-11-19T16:13:43;14.8;68.9
78514;SHT31;67814;51.976;5.810;2023-11-19T16:16:14;14.8;69.1
78514;SHT31;67814;51.976;5.810;2023-11-19T16:18:42;14.8;69.3